Terminal Aerodrome Forecast
Issued by NWS Shreveport, LA

Home | Current Version | Previous Version | Text Only | Print | Product List | Glossary On
Versions: 1 2 3 4 5 6 7 8 9 10 11 12 13 14 15 16 17
032
FTUS44 KSHV 201152
TAFGGG
TAF
KGGG 201152Z 2012/2112 14007KT P6SM OVC009
      TEMPO 2012/2014 6SM BR OVC006
     FM201400 17010KT 5SM -DZ BR OVC003
     FM201800 18012G15KT 6SM -DZ BR OVC006
     FM210000 16010KT 5SM BR OVC008
     FM210800 18016KT 6SM BR OVC007=

USA.gov is the U.S. government's official web portal to all federal, state and local government web resources and services.